sensor_id;sensor_type;location;lat;lon;timestamp;pressure;altitude;pressure_sealevel;temperature;humidity
18765;BME280;9511;54.242;12.448;2023-03-01T04:03:56;102901.38;;;-2.97;97.53
18765;BME280;9511;54.242;12.448;2023-03-01T04:06:30;102898.28;;;-3.02;97.61
18765;BME280;9511;54.242;12.448;2023-03-01T04:08:57;102892.19;;;-3.02;97.78
18765;BME280;9511;54.242;12.448;2023-03-01T04:11:26;102886.84;;;-3.04;97.55
18765;BME280;9511;54.242;12.448;2023-03-01T04:13:55;102879.41;;;-3.01;97.96
18765;BME280;9511;54.242;12.448;2023-03-01T04:16:26;102879.56;;;-2.99;98.00
18765;BME280;9511;54.242;12.448;2023-03-01T04:18:57;102879.84;;;-2.89;98.20
18765;BME280;9511;54.242;12.448;2023-03-01T04:21:25;102885.09;;;-2.73;98.37
18765;BME280;9511;54.242;12.448;2023-03-01T04:23:52;102894.22;;;-2.61;98.44
18765;BME280;9511;54.242;12.448;2023-03-01T04:26:20;102888.91;;;-2.62;98.42
18765;BME280;9511;54.242;12.448;2023-03-01T04:28:47;102894.22;;;-2.61;98.08
18765;BME280;9511;54.242;12.448;2023-03-01T04:31:18;102882.03;;;-2.62;98.01
18765;BME280;9511;54.242;12.448;2023-03-01T04:33:48;102872.91;;;-2.58;98.06
18765;BME280;9511;54.242;12.448;2023-03-01T04:36:19;102874.94;;;-2.56;97.77
18765;BME280;9511;54.242;12.448;2023-03-01T04:38:47;102868.59;;;-2.51;98.29
18765;BME280;9511;54.242;12.448;2023-03-01T04:41:16;102855.22;;;-2.47;97.98
18765;BME280;9511;54.242;12.448;2023-03-01T04:43:44;102860.59;;;-2.45;97.71
18765;BME280;9511;54.242;12.448;2023-03-01T04:46:13;102858.16;;;-2.44;97.71
18765;BME280;9511;54.242;12.448;2023-03-01T04:48:43;102857.56;;;-2.41;97.96
18765;BME280;9511;54.242;12.448;2023-03-01T04:51:10;102870.34;;;-2.43;97.54
18765;BME280;9511;54.242;12.448;2023-03-01T04:53:40;102856.25;;;-2.37;97.29
18765;BME280;9511;54.242;12.448;2023-03-01T04:56:08;102862.34;;;-2.37;97.32
18765;BME280;9511;54.242;12.448;2023-03-01T04:58:36;102855.31;;;-2.38;97.22
18765;BME280;9511;54.242;12.448;2023-03-01T05:01:08;102862.84;;;-2.32;97.20
18765;BME280;9511;54.242;12.448;2023-03-01T05:03:42;102864.28;;;-2.27;96.93
18765;BME280;9511;54.242;12.448;2023-03-01T05:06:10;102857.06;;;-2.30;97.04
18765;BME280;9511;54.242;12.448;2023-03-01T05:08:38;102869.13;;;-2.30;97.05
18765;BME280;9511;54.242;12.448;2023-03-01T05:11:06;102867.28;;;-2.31;96.94
18765;BME280;9511;54.242;12.448;2023-03-01T05:13:35;102863.84;;;-2.39;97.09
18765;BME280;9511;54.242;12.448;2023-03-01T05:16:04;102862.59;;;-2.43;96.62
18765;BME280;9511;54.242;12.448;2023-03-01T05:18:33;102860.41;;;-2.47;96.34
18765;BME280;9511;54.242;12.448;2023-03-01T05:21:03;102854.97;;;-2.57;96.54
18765;BME280;9511;54.242;12.448;2023-03-01T05:23:31;102859.88;;;-2.67;96.43
18765;BME280;9511;54.242;12.448;2023-03-01T05:25:59;102855.25;;;-2.70;96.71
18765;BME280;9511;54.242;12.448;2023-03-01T05:28:28;102854.94;;;-2.73;96.55
18765;BME280;9511;54.242;12.448;2023-03-01T05:30:55;102854.78;;;-2.74;96.15
18765;BME280;9511;54.242;12.448;2023-03-01T05:33:24;102846.25;;;-2.73;97.00
18765;BME280;9511;54.242;12.448;2023-03-01T05:35:52;102857.53;;;-2.73;96.65
18765;BME280;9511;54.242;12.448;2023-03-01T05:38:20;102850.06;;;-2.70;96.90
18765;BME280;9511;54.242;12.448;2023-03-01T05:40:48;102854.94;;;-2.73;96.94
18765;BME280;9511;54.242;12.448;2023-03-01T05:43:16;102851.03;;;-2.69;97.07
18765;BME280;9511;54.242;12.448;2023-03-01T05:45:45;102859.28;;;-2.64;97.22
18765;BME280;9511;54.242;12.448;2023-03-01T05:48:13;102845.38;;;-2.58;97.38
18765;BME280;9511;54.242;12.448;2023-03-01T05:50:42;102853.72;;;-2.45;97.76
18765;BME280;9511;54.242;12.448;2023-03-01T05:53:11;102852.00;;;-2.21;98.71
18765;BME280;9511;54.242;12.448;2023-03-01T05:55:39;102854.09;;;-2.10;99.14
18765;BME280;9511;54.242;12.448;2023-03-01T05:58:09;102845.03;;;-1.98;99.25
18765;BME280;9511;54.242;12.448;2023-03-01T06:00:37;102845.28;;;-1.88;99.01
18765;BME280;9511;54.242;12.448;2023-03-01T06:03:06;102851.94;;;-1.74;99.52
18765;BME280;9511;54.242;12.448;2023-03-01T06:05:33;102852.84;;;-1.57;99.80
18765;BME280;9511;54.242;12.448;2023-03-01T06:08:02;102846.97;;;-1.48;100.00
18765;BME280;9511;54.242;12.448;2023-03-01T06:10:32;102844.59;;;-1.38;100.00
18765;BME280;9511;54.242;12.448;2023-03-01T06:12:59;102843.31;;;-1.25;100.00
18765;BME280;9511;54.242;12.448;2023-03-01T06:15:26;102840.88;;;-1.15;99.82
18765;BME280;9511;54.242;12.448;2023-03-01T06:17:55;102831.91;;;-1.10;99.95
18765;BME280;9511;54.242;12.448;2023-03-01T06:20:26;102841.09;;;-1.05;100.00
18765;BME280;9511;54.242;12.448;2023-03-01T06:22:53;102840.81;;;-0.99;100.00
18765;BME280;9511;54.242;12.448;2023-03-01T06:25:23;102852.78;;;-0.93;100.00
18765;BME280;9511;54.242;12.448;2023-03-01T06:27:50;102845.94;;;-0.84;99.58
18765;BME280;9511;54.242;12.448;2023-03-01T06:30:20;102846.59;;;-0.77;100.00
18765;BME280;9511;54.242;12.448;2023-03-01T06:32:48;102849.50;;;-0.74;99.85
18765;BME280;9511;54.242;12.448;2023-03-01T06:35:16;102858.09;;;-0.67;100.00
18765;BME280;9511;54.242;12.448;2023-03-01T06:37:45;102850.16;;;-0.60;100.00
18765;BME280;9511;54.242;12.448;2023-03-01T06:40:13;102857.53;;;-0.56;100.00
18765;BME280;9511;54.242;12.448;2023-03-01T06:42:43;102861.53;;;-0.42;100.00
18765;BME280;9511;54.242;12.448;2023-03-01T06:45:11;102866.00;;;-0.32;100.00
18765;BME280;9511;54.242;12.448;2023-03-01T06:47:38;102860.78;;;-0.23;100.00
18765;BME280;9511;54.242;12.448;2023-03-01T06:50:06;102855.00;;;-0.12;100.00
18765;BME280;9511;54.242;12.448;2023-03-01T06:52:33;102863.44;;;-0.06;100.00
18765;BME280;9511;54.242;12.448;2023-03-01T06:55:03;102861.00;;;0.04;100.00
18765;BME280;9511;54.242;12.448;2023-03-01T06:57:30;102866.38;;;0.14;100.00
18765;BME280;9511;54.242;12.448;2023-03-01T06:59:57;102871.56;;;0.32;100.00
18765;BME280;9511;54.242;12.448;2023-03-01T07:02:24;102875.13;;;0.41;100.00
18765;BME280;9511;54.242;12.448;2023-03-01T07:04:52;102878.16;;;0.45;100.00
18765;BME280;9511;54.242;12.448;2023-03-01T07:07:19;102875.84;;;0.57;100.00
18765;BME280;9511;54.242;12.448;2023-03-01T07:09:48;102869.56;;;0.64;100.00
18765;BME280;9511;54.242;12.448;2023-03-01T07:12:17;102868.94;;;0.66;100.00
18765;BME280;9511;54.242;12.448;2023-03-01T07:14:44;102862.69;;;0.64;100.00
18765;BME280;9511;54.242;12.448;2023-03-01T07:17:11;102852.72;;;0.60;100.00
18765;BME280;9511;54.242;12.448;2023-03-01T07:19:39;102860.66;;;0.62;100.00
18765;BME280;9511;54.242;12.448;2023-03-01T07:22:06;102853.31;;;0.66;100.00
18765;BME280;9511;54.242;12.448;2023-03-01T07:24:35;102859.91;;;0.71;100.00
18765;BME280;9511;54.242;12.448;2023-03-01T07:27:02;102851.44;;;0.74;100.00
18765;BME280;9511;54.242;12.448;2023-03-01T07:29:31;102848.44;;;0.69;100.00
18765;BME280;9511;54.242;12.448;2023-03-01T07:31:58;102850.53;;;0.73;100.00
18765;BME280;9511;54.242;12.448;2023-03-01T07:34:25;102851.44;;;0.74;100.00
18765;BME280;9511;54.242;12.448;2023-03-01T07:36:53;102855.28;;;0.77;100.00
18765;BME280;9511;54.242;12.448;2023-03-01T07:39:20;102858.53;;;0.75;100.00
18765;BME280;9511;54.242;12.448;2023-03-01T07:41:48;102860.19;;;0.83;100.00
18765;BME280;9511;54.242;12.448;2023-03-01T07:44:21;102868.13;;;0.85;100.00
18765;BME280;9511;54.242;12.448;2023-03-01T07:46:52;102868.28;;;0.95;100.00
18765;BME280;9511;54.242;12.448;2023-03-01T07:49:22;102862.00;;;0.93;100.00
18765;BME280;9511;54.242;12.448;2023-03-01T07:51:49;102868.28;;;0.95;100.00
18765;BME280;9511;54.242;12.448;2023-03-01T07:54:16;102869.50;;;0.98;100.00
18765;BME280;9511;54.242;12.448;2023-03-01T07:56:46;102861.50;;;0.97;100.00
18765;BME280;9511;54.242;12.448;2023-03-01T07:59:13;102863.06;;;0.95;100.00
18765;BME280;9511;54.242;12.448;2023-03-01T08:01:40;102860.59;;;0.96;100.00
18765;BME280;9511;54.242;12.448;2023-03-01T08:04:09;102865.16;;;1.08;100.00
18765;BME280;9511;54.242;12.448;2023-03-01T08:06:36;102861.81;;;1.00;100.00
18765;BME280;9511;54.242;12.448;2023-03-01T08:09:03;102865.03;;;1.06;100.00
18765;BME280;9511;54.242;12.448;2023-03-01T08:11:30;102851.22;;;1.07;100.00
18765;BME280;9511;54.242;12.448;2023-03-01T08:13:58;102857.19;;;1.06;100.00
18765;BME280;9511;54.242;12.448;2023-03-01T08:16:25;102843.97;;;1.13;100.00
18765;BME280;9511;54.242;12.448;2023-03-01T08:18:52;102851.34;;;1.17;100.00
18765;BME280;9511;54.242;12.448;2023-03-01T08:21:23;102851.34;;;1.17;100.00
18765;BME280;9511;54.242;12.448;2023-03-01T08:23:50;102858.44;;;1.37;100.00
18765;BME280;9511;54.242;12.448;2023-03-01T08:26:19;102861.56;;;1.33;100.00
18765;BME280;9511;54.242;12.448;2023-03-01T08:28:48;102860.78;;;1.25;100.00
18765;BME280;9511;54.242;12.448;2023-03-01T08:31:17;102868.28;;;1.40;100.00
18765;BME280;9511;54.242;12.448;2023-03-01T08:33:45;102865.00;;;1.51;100.00
18765;BME280;9511;54.242;12.448;2023-03-01T08:36:16;102874.78;;;1.53;100.00
18765;BME280;9511;54.242;12.448;2023-03-01T08:38:45;102872.22;;;1.45;100.00
18765;BME280;9511;54.242;12.448;2023-03-01T08:41:12;102876.75;;;1.28;100.00
18765;BME280;9511;54.242;12.448;2023-03-01T08:43:40;102884.03;;;1.50;100.00
18765;BME280;9511;54.242;12.448;2023-03-01T08:46:07;102888.25;;;1.67;100.00
18765;BME280;9511;54.242;12.448;2023-03-01T08:48:35;102881.41;;;1.77;100.00
18765;BME280;9511;54.242;12.448;2023-03-01T08:51:10;102888.75;;;1.81;100.00
18765;BME280;9511;54.242;12.448;2023-03-01T08:53:37;102878.88;;;1.88;100.00
18765;BME280;9511;54.242;12.448;2023-03-01T08:56:07;102879.22;;;1.82;100.00
18765;BME280;9511;54.242;12.448;2023-03-01T08:58:34;102881.00;;;1.73;100.00
18765;BME280;9511;54.242;12.448;2023-03-01T09:01:07;102875.50;;;1.89;100.00
18765;BME280;9511;54.242;12.448;2023-03-01T09:03:34;102869.72;;;1.82;100.00
18765;BME280;9511;54.242;12.448;2023-03-01T09:06:02;102874.50;;;1.50;100.00
18765;BME280;9511;54.242;12.448;2023-03-01T09:08:30;102879.09;;;1.53;100.00
18765;BME280;9511;54.242;12.448;2023-03-01T09:10:57;102878.72;;;1.67;100.00
18765;BME280;9511;54.242;12.448;2023-03-01T09:13:27;102881.75;;;1.72;100.00
18765;BME280;9511;54.242;12.448;2023-03-01T09:15:57;102880.47;;;1.77;100.00
18765;BME280;9511;54.242;12.448;2023-03-01T09:18:24;102869.22;;;1.86;100.00
18765;BME280;9511;54.242;12.448;2023-03-01T09:20:51;102868.53;;;1.98;100.00
18765;BME280;9511;54.242;12.448;2023-03-01T09:23:20;102872.38;;;2.01;100.00
18765;BME280;9511;54.242;12.448;2023-03-01T09:25:48;102868.31;;;2.05;100.00
18765;BME280;9511;54.242;12.448;2023-03-01T09:28:15;102863.22;;;1.88;100.00
18765;BME280;9511;54.242;12.448;2023-03-01T09:30:43;102872.38;;;2.01;100.00
18765;BME280;9511;54.242;12.448;2023-03-01T09:33:10;102869.88;;;2.03;100.00
18765;BME280;9511;54.242;12.448;2023-03-01T09:35:40;102862.50;;;2.07;100.00
18765;BME280;9511;54.242;12.448;2023-03-01T09:38:12;102863.63;;;2.20;100.00
18765;BME280;9511;54.242;12.448;2023-03-01T09:40:42;102867.13;;;2.39;100.00
18765;BME280;9511;54.242;12.448;2023-03-01T09:43:15;102861.91;;;2.39;100.00
18765;BME280;9511;54.242;12.448;2023-03-01T09:45:49;102861.44;;;2.24;100.00
18765;BME280;9511;54.242;12.448;2023-03-01T09:48:19;102869.19;;;2.33;100.00
18765;BME280;9511;54.242;12.448;2023-03-01T09:50:47;102856.09;;;2.52;100.00
18765;BME280;9511;54.242;12.448;2023-03-01T09:53:16;102861.94;;;2.68;100.00
18765;BME280;9511;54.242;12.448;2023-03-01T09:55:46;102863.03;;;2.70;100.00
18765;BME280;9511;54.242;12.448;2023-03-01T09:58:29;102862.28;;;2.81;100.00
18765;BME280;9511;54.242;12.448;2023-03-01T10:01:02;102856.78;;;2.78;100.00
18765;BME280;9511;54.242;12.448;2023-03-01T10:03:34;102855.81;;;2.97;100.00
18765;BME280;9511;54.242;12.448;2023-03-01T10:06:11;102854.59;;;2.83;100.00
18765;BME280;9511;54.242;12.448;2023-03-01T10:08:43;102861.41;;;2.91;100.00
18765;BME280;9511;54.242;12.448;2023-03-01T10:11:20;102858.16;;;3.04;100.00
18765;BME280;9511;54.242;12.448;2023-03-01T10:13:55;102849.88;;;3.18;100.00
18765;BME280;9511;54.242;12.448;2023-03-01T10:16:38;102842.69;;;3.15;100.00
18765;BME280;9511;54.242;12.448;2023-03-01T10:19:12;102841.53;;;3.32;100.00
18765;BME280;9511;54.242;12.448;2023-03-01T10:21:44;102851.84;;;3.31;100.00
18765;BME280;9511;54.242;12.448;2023-03-01T10:24:14;102848.06;;;3.27;100.00
18765;BME280;9511;54.242;12.448;2023-03-01T10:26:48;102844.94;;;3.41;100.00
18765;BME280;9511;54.242;12.448;2023-03-01T10:29:17;102841.53;;;3.42;100.00
18765;BME280;9511;54.242;12.448;2023-03-01T10:31:52;102843.28;;;3.62;100.00
18765;BME280;9511;54.242;12.448;2023-03-01T10:34:28;102845.50;;;3.78;100.00
18765;BME280;9511;54.242;12.448;2023-03-01T10:36:57;102850.22;;;3.92;100.00
18765;BME280;9511;54.242;12.448;2023-03-01T10:39:26;102851.81;;;3.90;100.00
18765;BME280;9511;54.242;12.448;2023-03-01T10:41:59;102848.13;;;3.98;100.00
18765;BME280;9511;54.242;12.448;2023-03-01T10:44:41;102844.84;;;4.11;100.00
18765;BME280;9511;54.242;12.448;2023-03-01T10:47:19;102847.97;;;4.17;100.00
18765;BME280;9511;54.242;12.448;2023-03-01T10:49:58;102852.31;;;4.17;100.00
18765;BME280;9511;54.242;12.448;2023-03-01T10:52:29;102853.31;;;4.29;100.00
18765;BME280;9511;54.242;12.448;2023-03-01T10:54:59;102852.28;;;4.37;100.00
18765;BME280;9511;54.242;12.448;2023-03-01T10:57:30;102850.19;;;4.33;100.00
18765;BME280;9511;54.242;12.448;2023-03-01T11:00:18;102852.59;;;4.10;100.00
18765;BME280;9511;54.242;12.448;2023-03-01T11:02:50;102851.50;;;4.38;100.00
18765;BME280;9511;54.242;12.448;2023-03-01T11:05:22;102859.59;;;4.41;100.00
18765;BME280;9511;54.242;12.448;2023-03-01T11:07:52;102856.09;;;4.31;100.00
18765;BME280;9511;54.242;12.448;2023-03-01T11:10:23;102848.34;;;4.42;99.81
18765;BME280;9511;54.242;12.448;2023-03-01T11:12:51;102855.66;;;4.46;99.72
18765;BME280;9511;54.242;12.448;2023-03-01T11:15:27;102850.69;;;4.39;99.35
18765;BME280;9511;54.242;12.448;2023-03-01T11:17:56;102845.22;;;4.36;98.92
18765;BME280;9511;54.242;12.448;2023-03-01T11:20:27;102842.03;;;4.40;99.16
18765;BME280;9511;54.242;12.448;2023-03-01T11:22:58;102841.00;;;4.38;99.27
18765;BME280;9511;54.242;12.448;2023-03-01T11:25:29;102846.78;;;4.34;98.89
18765;BME280;9511;54.242;12.448;2023-03-01T11:27:59;102842.53;;;4.46;99.14
18765;BME280;9511;54.242;12.448;2023-03-01T11:30:30;102842.41;;;4.55;98.32
18765;BME280;9511;54.242;12.448;2023-03-01T11:33:08;102837.78;;;4.63;98.41
18765;BME280;9511;54.242;12.448;2023-03-01T11:35:42;102834.13;;;4.61;97.51
18765;BME280;9511;54.242;12.448;2023-03-01T11:38:18;102841.41;;;4.75;97.58
18765;BME280;9511;54.242;12.448;2023-03-01T11:40:51;102827.78;;;4.79;96.76
18765;BME280;9511;54.242;12.448;2023-03-01T11:43:24;102827.25;;;4.83;96.38
18765;BME280;9511;54.242;12.448;2023-03-01T11:46:07;102828.41;;;5.09;96.42
18765;BME280;9511;54.242;12.448;2023-03-01T11:48:49;102821.19;;;5.16;95.46
18765;BME280;9511;54.242;12.448;2023-03-01T11:51:24;102817.75;;;5.17;95.02
18765;BME280;9511;54.242;12.448;2023-03-01T11:54:04;102816.69;;;5.37;94.55
18765;BME280;9511;54.242;12.448;2023-03-01T11:56:36;102816.13;;;5.63;93.54
18765;BME280;9511;54.242;12.448;2023-03-01T11:59:36;102810.91;;;5.75;92.57
18765;BME280;9511;54.242;12.448;2023-03-01T12:02:37;102802.56;;;6.02;91.36
18765;BME280;9511;54.242;12.448;2023-03-01T12:08:16;102800.72;;;6.01;89.31
18765;BME280;9511;54.242;12.448;2023-03-01T12:10:56;102814.44;;;5.97;89.24
18765;BME280;9511;54.242;12.448;2023-03-01T12:13:47;102801.50;;;6.00;88.76
18765;BME280;9511;54.242;12.448;2023-03-01T12:16:24;102804.41;;;6.15;89.27
18765;BME280;9511;54.242;12.448;2023-03-01T12:19:08;102793.63;;;6.00;88.35
18765;BME280;9511;54.242;12.448;2023-03-01T12:21:49;102792.53;;;6.08;88.28
18765;BME280;9511;54.242;12.448;2023-03-01T12:24:39;102796.59;;;5.93;88.43
18765;BME280;9511;54.242;12.448;2023-03-01T12:27:22;102791.81;;;6.46;89.38
18765;BME280;9511;54.242;12.448;2023-03-01T12:30:00;102783.03;;;6.57;87.74
18765;BME280;9511;54.242;12.448;2023-03-01T12:32:40;102782.53;;;6.75;86.87
18765;BME280;9511;54.242;12.448;2023-03-01T12:35:29;102777.63;;;6.68;85.37
18765;BME280;9511;54.242;12.448;2023-03-01T12:38:12;102785.22;;;6.28;85.89
18765;BME280;9511;54.242;12.448;2023-03-01T12:40:59;102781.31;;;6.23;86.46
18765;BME280;9511;54.242;12.448;2023-03-01T12:43:39;102770.81;;;6.23;86.65
18765;BME280;9511;54.242;12.448;2023-03-01T12:46:28;102781.09;;;6.20;86.71
18765;BME280;9511;54.242;12.448;2023-03-01T12:49:06;102772.16;;;6.18;87.07
18765;BME280;9511;54.242;12.448;2023-03-01T12:51:37;102776.97;;;6.11;87.32
18765;BME280;9511;54.242;12.448;2023-03-01T12:54:11;102766.56;;;6.13;87.32
18765;BME280;9511;54.242;12.448;2023-03-01T12:56:43;102776.50;;;6.17;87.49
18765;BME280;9511;54.242;12.448;2023-03-01T12:59:21;102771.16;;;6.04;87.24
18765;BME280;9511;54.242;12.448;2023-03-01T13:01:54;102771.03;;;6.02;87.46
18765;BME280;9511;54.242;12.448;2023-03-01T13:04:40;102761.00;;;6.08;87.79
18765;BME280;9511;54.242;12.448;2023-03-01T13:07:22;102767.47;;;6.13;87.54
18765;BME280;9511;54.242;12.448;2023-03-01T13:09:57;102769.88;;;6.10;87.55
18765;BME280;9511;54.242;12.448;2023-03-01T13:12:51;102768.97;;;6.10;87.60
18765;BME280;9511;54.242;12.448;2023-03-01T13:15:40;102768.06;;;5.98;87.41
18765;BME280;9511;54.242;12.448;2023-03-01T13:18:32;102773.44;;;5.66;87.03
18765;BME280;9511;54.242;12.448;2023-03-01T13:21:01;102765.56;;;5.32;88.14
18765;BME280;9511;54.242;12.448;2023-03-01T13:23:33;102765.84;;;5.47;89.21
18765;BME280;9511;54.242;12.448;2023-03-01T13:26:07;102768.63;;;5.60;89.89
18765;BME280;9511;54.242;12.448;2023-03-01T13:28:50;102765.78;;;6.02;89.77
18765;BME280;9511;54.242;12.448;2023-03-01T13:31:57;102768.19;;;6.34;88.28
18765;BME280;9511;54.242;12.448;2023-03-01T13:34:57;102763.28;;;6.16;87.22
18765;BME280;9511;54.242;12.448;2023-03-01T13:37:30;102755.91;;;5.88;87.38
18765;BME280;9511;54.242;12.448;2023-03-01T13:40:00;102764.31;;;5.72;87.72
18765;BME280;9511;54.242;12.448;2023-03-01T13:42:41;102762.53;;;5.49;88.05
18765;BME280;9511;54.242;12.448;2023-03-01T13:45:20;102766.31;;;5.19;89.09
18765;BME280;9511;54.242;12.448;2023-03-01T13:47:52;102749.78;;;5.20;89.58
18765;BME280;9511;54.242;12.448;2023-03-01T13:50:22;102749.50;;;5.05;89.73
18765;BME280;9511;54.242;12.448;2023-03-01T13:52:53;102749.97;;;5.12;90.34
18765;BME280;9511;54.242;12.448;2023-03-01T13:55:27;102746.78;;;5.16;90.52
18765;BME280;9511;54.242;12.448;2023-03-01T13:57:59;102744.56;;;5.32;90.43
18765;BME280;9511;54.242;12.448;2023-03-01T14:00:33;102735.84;;;5.21;90.62
18765;BME280;9511;54.242;12.448;2023-03-01T14:03:09;102738.19;;;5.28;90.23
18765;BME280;9511;54.242;12.448;2023-03-01T14:05:37;102735.66;;;5.30;90.44
18765;BME280;9511;54.242;12.448;2023-03-01T14:08:18;102733.16;;;5.31;90.45
18765;BME280;9511;54.242;12.448;2023-03-01T14:10:54;102732.75;;;5.15;90.24
18765;BME280;9511;54.242;12.448;2023-03-01T14:13:34;102736.81;;;5.00;90.44
18765;BME280;9511;54.242;12.448;2023-03-01T14:16:20;102729.13;;;4.91;91.23
18765;BME280;9511;54.242;12.448;2023-03-01T14:18:58;102719.84;;;5.06;92.19
18765;BME280;9511;54.242;12.448;2023-03-01T14:21:29;102721.66;;;5.07;91.65
18765;BME280;9511;54.242;12.448;2023-03-01T14:23:57;102723.81;;;5.01;91.53
18765;BME280;9511;54.242;12.448;2023-03-01T14:26:25;102715.63;;;4.87;91.63
18765;BME280;9511;54.242;12.448;2023-03-01T14:28:52;102723.09;;;4.70;92.09
18765;BME280;9511;54.242;12.448;2023-03-01T14:31:34;102724.44;;;4.65;92.82
18765;BME280;9511;54.242;12.448;2023-03-01T14:34:03;102725.53;;;4.47;93.68
18765;BME280;9511;54.242;12.448;2023-03-01T14:36:33;102740.50;;;4.48;93.85
18765;BME280;9511;54.242;12.448;2023-03-01T14:39:01;102737.78;;;4.36;93.68
18765;BME280;9511;54.242;12.448;2023-03-01T14:41:33;102738.63;;;4.25;94.51
18765;BME280;9511;54.242;12.448;2023-03-01T14:44:03;102736.66;;;4.22;95.11
18765;BME280;9511;54.242;12.448;2023-03-01T14:46:36;102733.63;;;4.28;95.49
18765;BME280;9511;54.242;12.448;2023-03-01T14:49:06;102720.41;;;4.26;95.79
18765;BME280;9511;54.242;12.448;2023-03-01T14:51:37;102724.19;;;4.30;96.17
18765;BME280;9511;54.242;12.448;2023-03-01T14:54:20;102727.47;;;4.28;96.04
18765;BME280;9511;54.242;12.448;2023-03-01T14:56:48;102725.75;;;4.28;96.19
18765;BME280;9511;54.242;12.448;2023-03-01T14:59:15;102720.44;;;4.16;96.63
18765;BME280;9511;54.242;12.448;2023-03-01T15:01:44;102721.94;;;4.03;96.19
18765;BME280;9511;54.242;12.448;2023-03-01T15:04:12;102715.38;;;4.08;96.59
18765;BME280;9511;54.242;12.448;2023-03-01T15:06:40;102713.72;;;3.78;96.74
18765;BME280;9511;54.242;12.448;2023-03-01T15:09:12;102718.31;;;3.80;98.16
18765;BME280;9511;54.242;12.448;2023-03-01T15:11:40;102715.56;;;3.79;98.20
18765;BME280;9511;54.242;12.448;2023-03-01T15:14:26;102715.19;;;3.64;98.27
18765;BME280;9511;54.242;12.448;2023-03-01T15:16:55;102716.38;;;3.67;98.82
18765;BME280;9511;54.242;12.448;2023-03-01T15:19:23;102713.09;;;3.70;99.07
18765;BME280;9511;54.242;12.448;2023-03-01T15:21:53;102709.94;;;3.64;99.06
18765;BME280;9511;54.242;12.448;2023-03-01T15:24:24;102710.75;;;3.53;99.32
18765;BME280;9511;54.242;12.448;2023-03-01T15:26:55;102713.22;;;3.31;99.39
18765;BME280;9511;54.242;12.448;2023-03-01T15:29:24;102713.13;;;3.39;100.00
18765;BME280;9511;54.242;12.448;2023-03-01T15:31:59;102723.31;;;3.36;100.00
18765;BME280;9511;54.242;12.448;2023-03-01T15:34:28;102711.53;;;3.31;100.00
18765;BME280;9511;54.242;12.448;2023-03-01T15:36:58;102713.50;;;3.34;100.00
18765;BME280;9511;54.242;12.448;2023-03-01T15:39:38;102708.53;;;3.37;100.00
18765;BME280;9511;54.242;12.448;2023-03-01T15:42:09;102700.94;;;3.40;100.00
18765;BME280;9511;54.242;12.448;2023-03-01T15:44:38;102699.66;;;3.35;100.00
18765;BME280;9511;54.242;12.448;2023-03-01T15:47:23;102706.03;;;3.18;100.00
18765;BME280;9511;54.242;12.448;2023-03-01T15:49:52;102705.53;;;3.12;100.00
18765;BME280;9511;54.242;12.448;2023-03-01T15:52:23;102710.47;;;3.09;100.00
18765;BME280;9511;54.242;12.448;2023-03-01T15:54:56;102705.53;;;3.12;100.00
18765;BME280;9511;54.242;12.448;2023-03-01T15:57:23;102702.09;;;2.82;100.00
18765;BME280;9511;54.242;12.448;2023-03-01T15:59:51;102709.69;;;2.89;100.00
18765;BME280;9511;54.242;12.448;2023-03-01T16:02:19;102702.16;;;2.63;100.00
18765;BME280;9511;54.242;12.448;2023-03-01T16:04:47;102699.41;;;2.62;100.00
18765;BME280;9511;54.242;12.448;2023-03-01T16:07:15;102701.06;;;2.51;100.00
18765;BME280;9511;54.242;12.448;2023-03-01T16:09:42;102698.84;;;2.46;100.00
18765;BME280;9511;54.242;12.448;2023-03-01T16:12:14;102697.31;;;2.58;100.00
18765;BME280;9511;54.242;12.448;2023-03-01T16:14:42;102695.59;;;2.48;100.00
18765;BME280;9511;54.242;12.448;2023-03-01T16:17:09;102688.09;;;2.32;100.00
18765;BME280;9511;54.242;12.448;2023-03-01T16:19:38;102690.94;;;2.25;100.00
18765;BME280;9511;54.242;12.448;2023-03-01T16:22:06;102689.38;;;2.27;100.00
18765;BME280;9511;54.242;12.448;2023-03-01T16:24:34;102696.84;;;2.04;100.00
18765;BME280;9511;54.242;12.448;2023-03-01T16:27:01;102678.88;;;2.07;100.00
18765;BME280;9511;54.242;12.448;2023-03-01T16:29:29;102677.06;;;2.16;100.00
18765;BME280;9511;54.242;12.448;2023-03-01T16:31:56;102677.00;;;2.06;100.00
18765;BME280;9511;54.242;12.448;2023-03-01T16:34:26;102681.59;;;2.08;100.00
18765;BME280;9511;54.242;12.448;2023-03-01T16:36:55;102676.91;;;1.85;100.00
18765;BME280;9511;54.242;12.448;2023-03-01T16:39:22;102688.81;;;1.92;100.00
18765;BME280;9511;54.242;12.448;2023-03-01T16:41:49;102692.75;;;1.97;100.00
18765;BME280;9511;54.242;12.448;2023-03-01T16:44:16;102688.75;;;1.82;100.00
18765;BME280;9511;54.242;12.448;2023-03-01T16:46:43;102698.28;;;1.81;100.00
18765;BME280;9511;54.242;12.448;2023-03-01T16:49:11;102686.38;;;1.75;100.00
18765;BME280;9511;54.242;12.448;2023-03-01T16:51:38;102696.94;;;1.76;100.00
18765;BME280;9511;54.242;12.448;2023-03-01T16:54:06;102695.47;;;1.70;100.00
18765;BME280;9511;54.242;12.448;2023-03-01T16:56:33;102692.28;;;1.64;100.00
18765;BME280;9511;54.242;12.448;2023-03-01T16:59:03;102689.38;;;1.60;100.00
18765;BME280;9511;54.242;12.448;2023-03-01T17:01:31;102687.22;;;1.65;100.00
18765;BME280;9511;54.242;12.448;2023-03-01T17:04:05;102689.19;;;1.49;100.00
18765;BME280;9511;54.242;12.448;2023-03-01T17:06:32;102690.97;;;1.40;100.00
18765;BME280;9511;54.242;12.448;2023-03-01T17:08:59;102684.19;;;1.42;100.00
18765;BME280;9511;54.242;12.448;2023-03-01T17:11:28;102695.69;;;1.44;100.00
18765;BME280;9511;54.242;12.448;2023-03-01T17:13:55;102691.88;;;1.21;100.00
18765;BME280;9511;54.242;12.448;2023-03-01T17:16:22;102699.34;;;0.99;100.00
18765;BME280;9511;54.242;12.448;2023-03-01T17:18:49;102704.47;;;0.89;100.00
18765;BME280;9511;54.242;12.448;2023-03-01T17:21:17;102714.44;;;0.85;100.00